»·PEaware :: N8D KNFW-KLBF

N8D :: KNFW-KLBF

FLIGHT INFORMATION

Flight Status: Arrived
Operator: Privately registered:
United States
More flights under this callsign
Pilot: Drew L. (13237)
Aircraft: PILATUS PC-12 EAGLE
(PC12)
More flights by this aircraft type
Origin: KNFW Fort Worth NAS Jrb
United States
Destination: KLBF North Platte Regl-Bird
United States
More flights between these airports :: More routes between these airports
Route: MRMAC HLC LBF
File this flight plan on PilotEdge
Remarks:
Altitude:
(Current/Filed)
25,000ft
Speed:
(Current/Filed)
0kts
Departed: 03-Jun-18 09:34 PM
Arrived: 04-Jun-18 12:23 AM
Distance/Time
Traveled:
525nm/2:49
Distance/Time
To Go:
Arrived

Flight Plot

Page will automatically refresh every two minutes.

Flight plan parsing failed; only flown route is shown


Map Options




Map Legend


Flown Route
Filed Route
Departure Airport
Arrival Airport
Navaid (VOR, NDB)
Fix

Horizontal Profiles

Position Reports

Time Latitude Longitude Heading Altitude Ground
Speed
03-Jun-18 21:28 32.752945 -97.441708 0 656ft 0kts
03-Jun-18 21:29 32.752945 -97.441708 0 656ft 0kts
03-Jun-18 21:30 32.752945 -97.441708 0 656ft 0kts
03-Jun-18 21:31 32.752945 -97.441708 0 656ft 0kts
03-Jun-18 21:32 32.752945 -97.441708 0 656ft 0kts
03-Jun-18 21:33 32.752945 -97.441708 0 656ft 0kts
03-Jun-18 21:34 32.769272 -97.441943 0 1169ft 124kts
03-Jun-18 21:35 32.804016 -97.453361 346 3437ft 135kts
03-Jun-18 21:36 32.839791 -97.464905 346 5802ft 135kts
03-Jun-18 21:37 32.875651 -97.476224 344 8114ft 137kts
03-Jun-18 21:38 32.907938 -97.486402 344 10042ft 141kts
03-Jun-18 21:39 32.945477 -97.498238 343 12116ft 146kts
03-Jun-18 21:40 32.984660 -97.510598 343 14198ft 148kts
03-Jun-18 21:41 33.024300 -97.523119 344 16184ft 150kts
03-Jun-18 21:42 33.064773 -97.535914 346 18078ft 153kts
03-Jun-18 21:43 33.105968 -97.548949 347 19874ft 156kts
03-Jun-18 21:44 33.148000 -97.562268 346 21638ft 158kts
03-Jun-18 21:45 33.190321 -97.575626 345 23186ft 159kts
03-Jun-18 21:46 33.232680 -97.589033 344 24543ft 161kts
03-Jun-18 21:47 33.278154 -97.603828 343 25145ft 195kts
03-Jun-18 21:48 33.334384 -97.621795 344 25137ft 216kts
03-Jun-18 21:49 33.393117 -97.640328 344 25136ft 220kts
03-Jun-18 21:50 33.452248 -97.659177 343 25138ft 221kts
03-Jun-18 21:51 33.511709 -97.678182 343 25137ft 222kts
03-Jun-18 21:52 33.571199 -97.697228 343 25138ft 222kts
03-Jun-18 21:53 33.630805 -97.716340 343 25142ft 222kts
03-Jun-18 21:54 33.690320 -97.735464 343 25152ft 222kts
03-Jun-18 21:55 33.749588 -97.754525 343 25160ft 221kts
03-Jun-18 21:56 33.809016 -97.773674 343 25162ft 221kts
03-Jun-18 21:57 33.868441 -97.792836 343 25159ft 221kts
03-Jun-18 21:58 33.927983 -97.812069 343 25157ft 221kts
03-Jun-18 21:59 33.987414 -97.831295 343 25154ft 221kts
03-Jun-18 22:00 34.046533 -97.850449 343 25152ft 221kts
03-Jun-18 22:01 34.105753 -97.869663 343 25155ft 221kts
03-Jun-18 22:02 34.165060 -97.888933 343 25157ft 222kts
03-Jun-18 22:03 34.224540 -97.908278 343 25157ft 222kts
03-Jun-18 22:04 34.284330 -97.927757 343 25157ft 223kts
03-Jun-18 22:05 34.343961 -97.947216 343 25156ft 223kts
03-Jun-18 22:06 34.403673 -97.966732 343 25155ft 222kts
03-Jun-18 22:07 34.463312 -97.986251 343 25155ft 222kts
03-Jun-18 22:08 34.522730 -98.005731 346 25164ft 221kts
03-Jun-18 22:09 34.581970 -98.025178 346 25162ft 221kts
03-Jun-18 22:10 34.641429 -98.044727 346 25157ft 221kts
03-Jun-18 22:11 34.700607 -98.064212 346 25149ft 221kts
03-Jun-18 22:12 34.759940 -98.083777 346 25142ft 221kts
03-Jun-18 22:13 34.819117 -98.103322 346 25137ft 221kts
03-Jun-18 22:14 34.877562 -98.127062 341 25134ft 221kts
03-Jun-18 22:15 34.937109 -98.154105 332 25141ft 238kts
03-Jun-18 22:16 34.999941 -98.182438 332 25138ft 242kts
03-Jun-18 22:17 35.062125 -98.210401 332 25134ft 234kts
03-Jun-18 22:18 35.122329 -98.237693 332 25144ft 229kts
03-Jun-18 22:19 35.181765 -98.264726 332 25157ft 228kts
03-Jun-18 22:20 35.240875 -98.291642 332 25172ft 227kts
03-Jun-18 22:21 35.299775 -98.318467 332 25183ft 226kts
03-Jun-18 22:22 35.358872 -98.345453 332 25191ft 226kts
03-Jun-18 22:23 35.417639 -98.372322 332 25195ft 226kts
03-Jun-18 22:24 35.476639 -98.399328 332 25197ft 226kts
03-Jun-18 22:25 35.535663 -98.426414 332 25195ft 227kts
03-Jun-18 22:26 35.594646 -98.453482 332 25182ft 227kts
03-Jun-18 22:27 35.653686 -98.480625 332 25172ft 227kts
03-Jun-18 22:28 35.712661 -98.507791 332 25167ft 227kts
03-Jun-18 22:29 35.771795 -98.535077 332 25162ft 227kts
03-Jun-18 22:30 35.830727 -98.562314 332 25153ft 227kts
03-Jun-18 22:31 35.889598 -98.589562 332 25150ft 226kts
03-Jun-18 22:32 35.948569 -98.616903 332 25149ft 226kts
03-Jun-18 22:33 36.007381 -98.644215 332 25149ft 226kts
03-Jun-18 22:34 36.065481 -98.671240 331 25157ft 227kts
03-Jun-18 22:35 36.124374 -98.698660 331 25158ft 228kts
03-Jun-18 22:36 36.183632 -98.726298 331 25158ft 228kts
03-Jun-18 22:37 36.242851 -98.753966 331 25157ft 228kts
03-Jun-18 22:38 36.302203 -98.781745 331 25157ft 228kts
03-Jun-18 22:39 36.361307 -98.809458 331 25157ft 228kts
03-Jun-18 22:40 36.419757 -98.836947 331 25156ft 228kts
03-Jun-18 22:41 36.461760 -98.856606 331 25156ft 228kts
03-Jun-18 22:42 36.499287 -98.874303 331 25156ft 228kts
03-Jun-18 22:43 36.521561 -98.884827 331 25156ft 228kts
03-Jun-18 22:44 36.541080 -98.894031 331 25159ft 228kts
03-Jun-18 22:45 36.562681 -98.904220 331 25163ft 228kts
03-Jun-18 22:46 36.584586 -98.914565 331 25167ft 228kts
03-Jun-18 22:47 36.602143 -98.922863 331 25170ft 228kts
03-Jun-18 22:48 36.625867 -98.934080 331 25174ft 229kts
03-Jun-18 22:49 36.646105 -98.943654 331 25178ft 229kts
03-Jun-18 22:50 36.663538 -98.951906 331 25179ft 229kts
03-Jun-18 22:51 36.680099 -98.959747 331 25178ft 230kts
03-Jun-18 22:52 36.697102 -98.967802 331 25177ft 230kts
03-Jun-18 22:53 36.713285 -98.975469 331 25176ft 231kts
03-Jun-18 22:54 36.729458 -98.983125 331 25174ft 231kts
03-Jun-18 22:55 36.752409 -98.994030 330 25170ft 232kts
03-Jun-18 22:56 36.770288 -99.002545 330 25166ft 233kts
03-Jun-18 22:57 36.791722 -99.012718 330 25160ft 233kts
03-Jun-18 22:58 36.812613 -99.022628 330 25155ft 234kts
03-Jun-18 22:59 36.831784 -99.031728 330 25155ft 234kts
03-Jun-18 23:00 36.852590 -99.041613 330 25155ft 235kts
03-Jun-18 23:01 36.871861 -99.050778 330 25155ft 235kts
03-Jun-18 23:02 36.890654 -99.059723 330 25155ft 236kts
03-Jun-18 23:03 36.913451 -99.070583 330 25155ft 236kts
03-Jun-18 23:04 36.941281 -99.083854 330 25155ft 237kts
03-Jun-18 23:05 36.983052 -99.103793 330 25155ft 239kts
03-Jun-18 23:06 37.002791 -99.113230 329 25155ft 240kts
03-Jun-18 23:07 37.023163 -99.122981 329 25155ft 241kts
03-Jun-18 23:08 37.047841 -99.134801 329 25160ft 243kts
03-Jun-18 23:09 37.066435 -99.143711 329 25164ft 244kts
03-Jun-18 23:10 37.085782 -99.153034 328 25201ft 244kts
03-Jun-18 23:11 37.106399 -99.162958 328 25205ft 246kts
03-Jun-18 23:12 37.154946 -99.186189 328 25205ft 250kts
03-Jun-18 23:13 37.175896 -99.196212 328 25204ft 251kts
03-Jun-18 23:14 37.195060 -99.205388 328 25204ft 251kts
03-Jun-18 23:15 37.214845 -99.214872 328 25203ft 252kts
03-Jun-18 23:16 37.243257 -99.228505 328 25202ft 253kts
03-Jun-18 23:17 37.262792 -99.237896 328 25200ft 253kts
03-Jun-18 23:18 37.282516 -99.247391 328 25198ft 253kts
03-Jun-18 23:19 37.302511 -99.257017 328 25197ft 253kts
03-Jun-18 23:20 37.324195 -99.267461 328 25197ft 253kts
03-Jun-18 23:21 37.362480 -99.285950 328 25220ft 256kts
03-Jun-18 23:22 37.428630 -99.318201 328 25871ft 255kts
03-Jun-18 23:23 37.495022 -99.350360 328 26430ft 257kts
03-Jun-18 23:24 37.550661 -99.377325 328 26865ft 259kts
03-Jun-18 23:25 37.618054 -99.410083 328 27196ft 264kts
03-Jun-18 23:26 37.685161 -99.442242 327 27192ft 254kts
03-Jun-18 23:27 37.750717 -99.474405 327 27192ft 256kts
03-Jun-18 23:28 37.817403 -99.507032 328 27189ft 258kts
03-Jun-18 23:29 37.884356 -99.539760 328 27191ft 259kts
03-Jun-18 23:30 37.951584 -99.572736 328 27188ft 260kts
03-Jun-18 23:31 38.018821 -99.605779 328 27188ft 260kts
03-Jun-18 23:32 38.086189 -99.638946 328 27189ft 260kts
03-Jun-18 23:33 38.153010 -99.671909 327 27192ft 260kts
03-Jun-18 23:34 38.220401 -99.705236 327 27193ft 260kts
03-Jun-18 23:35 38.287823 -99.738646 327 27188ft 260kts
03-Jun-18 23:36 38.355032 -99.771997 327 27184ft 260kts
03-Jun-18 23:37 38.422551 -99.805566 327 27185ft 260kts
03-Jun-18 23:38 38.489839 -99.839104 327 27174ft 261kts
03-Jun-18 23:39 38.557405 -99.872843 327 27164ft 261kts
03-Jun-18 23:40 38.624741 -99.906535 327 27164ft 261kts
03-Jun-18 23:41 38.692270 -99.940394 327 27155ft 261kts
03-Jun-18 23:42 38.759575 -99.974210 327 27149ft 261kts
03-Jun-18 23:43 38.827131 -100.008222 327 27148ft 261kts
03-Jun-18 23:44 38.894318 -100.042109 327 27147ft 260kts
03-Jun-18 23:45 38.961573 -100.076098 327 27148ft 259kts
03-Jun-18 23:46 39.028231 -100.109841 327 27147ft 257kts
03-Jun-18 23:47 39.094436 -100.143441 327 27147ft 255kts
03-Jun-18 23:48 39.159533 -100.176560 327 27142ft 253kts
03-Jun-18 23:49 39.224872 -100.209874 327 27142ft 252kts
03-Jun-18 23:50 39.292464 -100.236634 337 27143ft 260kts
03-Jun-18 23:51 39.362955 -100.256679 337 27143ft 260kts
03-Jun-18 23:52 39.433324 -100.276704 337 27143ft 260kts
03-Jun-18 23:53 39.503767 -100.296797 337 27143ft 260kts
03-Jun-18 23:54 39.574315 -100.316964 337 27143ft 260kts
03-Jun-18 23:55 39.644640 -100.337108 337 27143ft 260kts
03-Jun-18 23:56 39.715253 -100.357380 337 27141ft 260kts
03-Jun-18 23:57 39.785717 -100.377648 337 27137ft 260kts
03-Jun-18 23:58 39.856302 -100.397993 337 27135ft 260kts
03-Jun-18 23:59 39.926697 -100.418326 337 27135ft 260kts
04-Jun-18 00:00 39.997224 -100.438742 337 27135ft 260kts
04-Jun-18 00:01 40.067775 -100.459210 337 27135ft 260kts
04-Jun-18 00:02 40.138353 -100.479720 337 27131ft 260kts
04-Jun-18 00:03 40.208780 -100.500230 337 27130ft 259kts
04-Jun-18 00:04 40.279188 -100.520792 337 27131ft 259kts
04-Jun-18 00:05 40.348371 -100.540185 338 25739ft 255kts
04-Jun-18 00:06 40.416446 -100.559881 338 23833ft 248kts
04-Jun-18 00:07 40.482810 -100.579435 338 21974ft 242kts
04-Jun-18 00:08 40.547482 -100.598483 339 20179ft 236kts
04-Jun-18 00:09 40.610645 -100.617103 340 18432ft 231kts
04-Jun-18 00:10 40.672361 -100.635273 341 16738ft 225kts
04-Jun-18 00:11 40.732343 -100.652979 341 15109ft 218kts
04-Jun-18 00:12 40.790542 -100.670246 341 13541ft 213kts
04-Jun-18 00:13 40.847284 -100.687105 342 12000ft 207kts
04-Jun-18 00:14 40.903845 -100.699802 347 10435ft 206kts
04-Jun-18 00:15 40.959884 -100.711685 348 8920ft 204kts
04-Jun-18 00:16 41.002755 -100.676643 55 8139ft 194kts
04-Jun-18 00:17 41.034793 -100.619906 54 8138ft 187kts
04-Jun-18 00:18 41.062292 -100.571658 56 6356ft 127kts
04-Jun-18 00:19 41.083773 -100.557639 246 3751ft 121kts
04-Jun-18 00:20 41.063509 -100.584536 255 3753ft 111kts
04-Jun-18 00:21 41.090005 -100.615780 316 3874ft 137kts
04-Jun-18 00:22 41.111455 -100.652372 304 3051ft 121kts
04-Jun-18 00:23 41.126398 -100.679566 298 2781ft 14kts
04-Jun-18 00:24 41.126446 -100.679668 303 2781ft 0kts
04-Jun-18 00:25 41.126446 -100.679668 303 2781ft 0kts
04-Jun-18 00:26 41.126446 -100.679668 303 2781ft 0kts

Navigation Log

Ident Type
Flight plan parsing failed, navigation log unavailable